Time;durP1;ratioP1;P1;durP2;ratioP2;P2;SDS_P1;SDS_P2;PMS_P1;PMS_P2;Temp;Humidity;BMP_temperature;BMP_pressure;BME280_temperature;BME280_humidity;BME280_pressure;Samples;Min_cycle;Max_cycle;Signal;HPM_P1;HPM_P2
2024/02/10 00:02:10;;;;;;;3.03;0.80;;;11.00;99.90;;;;;;5033762;28;20464;-74
2024/02/10 00:04:36;;;;;;;2.60;1.02;;;10.90;99.90;;;;;;5033522;28;20026;-74
2024/02/10 00:07:02;;;;;;;2.28;1.42;;;10.90;99.90;;;;;;5034983;28;20507;-74
2024/02/10 00:09:27;;;;;;;2.40;1.15;;;10.80;99.90;;;;;;5033515;28;20029;-74
2024/02/10 00:11:53;;;;;;;2.78;1.30;;;10.80;99.90;;;;;;5033750;28;20026;-75
2024/02/10 00:14:20;;;;;;;3.38;0.75;;;10.70;99.90;;;;;;5034815;28;20033;-72
2024/02/10 00:16:46;;;;;;;3.65;0.95;;;10.70;99.90;;;;;;5033545;28;20084;-74
2024/02/10 00:19:11;;;;;;;5.88;1.45;;;10.70;99.90;;;;;;5034804;28;20472;-74
2024/02/10 00:21:38;;;;;;;4.68;1.70;;;10.70;99.90;;;;;;5033085;28;20055;-73
2024/02/10 00:24:07;;;;;;;7.35;1.30;;;10.70;99.90;;;;;;5034533;28;20579;-74
2024/02/10 00:26:34;;;;;;;3.63;1.40;;;10.70;99.90;;;;;;5034130;28;20124;-73
2024/02/10 00:28:59;;;;;;;6.53;2.70;;;10.70;99.90;;;;;;5034031;28;20021;-72
2024/02/10 00:31:25;;;;;;;2.58;0.98;;;10.70;99.90;;;;;;5034619;28;20029;-73
2024/02/10 00:33:51;;;;;;;6.15;1.20;;;10.70;99.50;;;;;;5034255;28;20037;-72
2024/02/10 00:36:17;;;;;;;1.10;0.68;;;10.70;99.20;;;;;;5033345;28;20033;-72
2024/02/10 00:38:44;;;;;;;2.67;0.80;;;11.00;98.20;;;;;;5034206;28;20075;-74
2024/02/10 00:41:13;;;;;;;1.75;0.70;;;11.00;97.70;;;;;;5032580;28;20029;-73
2024/02/10 00:43:43;;;;;;;0.63;0.60;;;11.00;97.40;;;;;;5034764;28;20091;-74
2024/02/10 00:46:09;;;;;;;2.42;0.95;;;11.00;97.00;;;;;;5033070;28;20033;-74
2024/02/10 00:48:36;;;;;;;0.95;0.63;;;11.00;97.00;;;;;;5032488;28;20060;-74
2024/02/10 00:51:04;;;;;;;1.23;0.50;;;11.20;96.60;;;;;;5033337;28;20071;-73
2024/02/10 00:53:30;;;;;;;1.00;0.40;;;11.30;96.30;;;;;;5033307;28;20391;-73
2024/02/10 00:55:55;;;;;;;0.88;0.47;;;11.40;96.30;;;;;;5033514;28;20022;-73
2024/02/10 00:58:21;;;;;;;0.98;0.50;;;11.40;95.80;;;;;;5032445;28;20032;-73
2024/02/10 01:00:47;;;;;;;2.58;0.30;;;11.50;95.70;;;;;;5032960;28;20515;-74
2024/02/10 01:03:13;;;;;;;2.15;0.50;;;11.40;95.60;;;;;;5032709;28;20064;-74
2024/02/10 01:05:39;;;;;;;1.40;0.38;;;11.40;95.80;;;;;;5031822;28;20112;-74
2024/02/10 01:08:05;;;;;;;0.85;0.50;;;11.50;95.70;;;;;;5033327;28;20025;-74
2024/02/10 01:10:31;;;;;;;2.03;1.00;;;11.50;95.90;;;;;;5032438;28;20026;-75
2024/02/10 01:13:03;;;;;;;1.02;0.85;;;11.40;95.90;;;;;;5033933;28;20025;-75
2024/02/10 01:15:32;;;;;;;4.68;0.80;;;11.50;95.90;;;;;;5033716;28;20036;-75
2024/02/10 01:18:01;;;;;;;0.95;0.60;;;11.50;95.90;;;;;;5033912;28;20423;-74
2024/02/10 01:20:27;;;;;;;2.13;0.93;;;11.50;96.00;;;;;;5033596;28;20105;-74
2024/02/10 01:22:56;;;;;;;2.00;0.70;;;11.40;96.30;;;;;;5033995;28;20031;-73
2024/02/10 01:25:21;;;;;;;0.80;0.60;;;11.50;96.20;;;;;;5034114;28;20022;-73
2024/02/10 01:27:47;;;;;;;5.78;1.23;;;11.50;96.20;;;;;;5034115;28;20076;-74
2024/02/10 01:30:13;;;;;;;1.73;0.77;;;11.40;96.20;;;;;;5032366;28;20025;-74
2024/02/10 01:32:38;;;;;;;6.32;1.48;;;11.40;96.30;;;;;;5034515;28;20025;-75
2024/02/10 01:35:05;;;;;;;2.83;1.02;;;11.40;96.40;;;;;;5033231;28;20029;-73
2024/02/10 01:37:30;;;;;;;5.75;0.95;;;11.30;96.60;;;;;;5033788;28;20051;-74
2024/02/10 01:39:57;;;;;;;1.25;0.80;;;11.20;96.80;;;;;;5033646;28;20466;-74
2024/02/10 01:42:37;;;;;;;2.55;0.65;;;11.10;97.20;;;;;;5033732;28;20017;-74
2024/02/10 01:45:13;;;;;;;2.22;0.70;;;11.20;97.30;;;;;;5033147;28;20029;-74
2024/02/10 01:47:43;;;;;;;3.90;1.45;;;11.10;97.70;;;;;;5033377;28;20024;-74
2024/02/10 01:50:10;;;;;;;2.92;0.90;;;11.00;98.00;;;;;;5031708;28;20025;-74
2024/02/10 01:52:38;;;;;;;3.50;1.40;;;11.00;98.10;;;;;;5033303;28;20021;-72
2024/02/10 01:55:05;;;;;;;5.40;1.45;;;10.90;98.80;;;;;;5033214;28;20013;-74
2024/02/10 01:57:32;;;;;;;2.25;1.10;;;10.90;99.10;;;;;;5031953;28;20461;-73
2024/02/10 01:59:59;;;;;;;1.23;0.68;;;10.70;99.40;;;;;;5032679;28;20021;-74
2024/02/10 02:02:28;;;;;;;7.18;2.20;;;10.70;99.80;;;;;;5033167;28;20476;-73
2024/02/10 02:04:56;;;;;;;18.27;7.30;;;10.60;99.90;;;;;;5033071;28;20029;-76
2024/02/10 02:07:22;;;;;;;23.42;8.70;;;10.50;99.90;;;;;;5033069;28;20017;-74
2024/02/10 02:09:48;;;;;;;6.03;2.22;;;10.60;99.90;;;;;;5032651;28;20029;-74
2024/02/10 02:12:13;;;;;;;22.13;7.20;;;10.60;99.90;;;;;;5032720;28;20035;-74
2024/02/10 02:14:41;;;;;;;28.42;11.23;;;10.50;99.90;;;;;;5033062;28;20053;-76
2024/02/10 02:17:09;;;;;;;11.20;5.40;;;10.50;99.90;;;;;;5036759;28;20067;-73
2024/02/10 02:19:38;;;;;;;25.33;9.85;;;10.40;99.90;;;;;;5037035;28;20109;-73
2024/02/10 02:22:04;;;;;;;13.48;4.45;;;10.40;99.90;;;;;;5037099;28;20025;-74
2024/02/10 02:24:30;;;;;;;28.38;10.57;;;10.30;99.90;;;;;;5036698;28;20104;-74
2024/02/10 02:26:59;;;;;;;25.25;8.10;;;10.30;99.90;;;;;;5036846;28;20386;-74
2024/02/10 02:29:25;;;;;;;7.10;3.72;;;10.20;99.90;;;;;;5036534;28;20029;-75
2024/02/10 02:32:00;;;;;;;7.22;2.35;;;10.10;99.90;;;;;;5035875;28;20026;-74
2024/02/10 02:34:33;;;;;;;5.35;1.40;;;10.00;99.90;;;;;;5036645;28;20037;-74
2024/02/10 02:37:02;;;;;;;4.22;1.00;;;9.90;99.90;;;;;;5035279;28;20032;-74
2024/02/10 02:39:28;;;;;;;3.67;1.02;;;9.90;99.90;;;;;;5035076;28;20044;-74
2024/02/10 02:41:59;;;;;;;2.67;1.00;;;9.80;99.90;;;;;;5036641;28;20429;-74
2024/02/10 02:44:26;;;;;;;3.15;0.90;;;9.70;99.90;;;;;;5036346;28;20014;-73
2024/02/10 02:46:54;;;;;;;5.45;1.20;;;9.50;99.90;;;;;;5036331;28;20060;-74
2024/02/10 02:49:23;;;;;;;54.97;19.80;;;9.30;99.90;;;;;;5036360;28;20091;-74
2024/02/10 02:51:51;;;;;;;19.58;8.68;;;9.20;99.90;;;;;;5035154;28;20459;-73
2024/02/10 02:54:18;;;;;;;10.57;4.80;;;9.10;99.90;;;;;;5035130;28;20080;-73
2024/02/10 02:56:45;;;;;;;14.68;4.75;;;9.10;99.90;;;;;;5036245;28;20025;-74
2024/02/10 02:59:13;;;;;;;3.95;2.70;;;9.00;99.90;;;;;;5036076;28;20025;-74
2024/02/10 03:01:40;;;;;;;6.00;3.28;;;8.90;99.90;;;;;;5034634;28;20117;-74
2024/02/10 03:04:06;;;;;;;2.90;1.92;;;8.90;99.90;;;;;;5035980;28;20021;-74
2024/02/10 03:06:32;;;;;;;1.73;1.35;;;8.80;99.90;;;;;;5035962;28;20032;-74
2024/02/10 03:08:58;;;;;;;16.20;5.78;;;8.70;99.90;;;;;;5035847;28;20104;-74
2024/02/10 03:11:26;;;;;;;8.10;3.88;;;8.60;99.90;;;;;;5034383;28;20025;-74
2024/02/10 03:13:52;;;;;;;3.83;2.08;;;8.50;99.90;;;;;;5035598;28;20055;-74
2024/02/10 03:16:19;;;;;;;5.47;1.65;;;8.40;99.90;;;;;;5035299;28;20122;-74
2024/02/10 03:18:46;;;;;;;1.42;1.15;;;8.30;99.90;;;;;;5034349;28;20044;-74
2024/02/10 03:21:21;;;;;;;5.57;1.60;;;8.20;99.90;;;;;;5033844;28;20045;-73
2024/02/10 03:23:46;;;;;;;12.00;3.42;;;8.10;99.90;;;;;;5035268;28;20029;-73
2024/02/10 03:26:12;;;;;;;7.53;2.28;;;8.10;99.90;;;;;;5035164;28;20423;-74
2024/02/10 03:28:38;;;;;;;8.63;3.38;;;8.00;99.90;;;;;;5035208;28;20388;-74
2024/02/10 03:31:05;;;;;;;6.10;2.10;;;8.00;99.90;;;;;;5034869;28;20084;-75
2024/02/10 03:33:32;;;;;;;7.80;2.30;;;8.00;99.90;;;;;;5056206;23;20037;-75
2024/02/10 03:35:59;;;;;;;3.85;1.63;;;7.90;99.90;;;;;;5056166;28;20136;-74
2024/02/10 03:38:24;;;;;;;4.93;1.63;;;7.80;99.90;;;;;;5057818;28;20025;-74
2024/02/10 03:40:50;;;;;;;2.45;0.93;;;7.70;99.90;;;;;;5056604;28;20027;-74
2024/02/10 03:43:17;;;;;;;2.55;1.20;;;7.60;99.90;;;;;;5054435;28;20021;-73
2024/02/10 03:45:43;;;;;;;1.63;0.98;;;7.50;99.90;;;;;;5052947;28;20029;-73
2024/02/10 03:48:09;;;;;;;4.57;1.23;;;7.40;99.90;;;;;;5054046;28;20502;-74
2024/02/10 03:50:35;;;;;;;2.20;1.05;;;7.40;99.90;;;;;;5053938;28;20112;-74
2024/02/10 03:53:01;;;;;;;2.72;1.00;;;7.30;99.90;;;;;;5054066;28;20029;-73
2024/02/10 03:55:29;;;;;;;9.15;1.42;;;7.30;99.90;;;;;;5053850;28;20398;-73
2024/02/10 03:57:56;;;;;;;3.75;1.05;;;7.30;99.90;;;;;;5053941;28;20017;-74
2024/02/10 04:00:25;;;;;;;1.33;0.85;;;7.30;99.90;;;;;;5053763;28;20021;-73
2024/02/10 04:02:52;;;;;;;3.88;0.65;;;7.20;99.90;;;;;;5052601;28;20488;-73
2024/02/10 04:05:18;;;;;;;3.17;1.58;;;7.10;99.90;;;;;;5052483;28;20518;-74
2024/02/10 04:07:49;;;;;;;3.80;1.33;;;7.10;99.90;;;;;;5053664;28;20025;-73
2024/02/10 04:10:16;;;;;;;1.33;1.00;;;7.00;99.90;;;;;;5052401;28;20112;-73
2024/02/10 04:12:42;;;;;;;0.60;0.50;;;6.90;99.90;;;;;;5053678;28;20025;-73
2024/02/10 04:15:12;;;;;;;1.02;0.68;;;6.90;99.90;;;;;;5052254;28;20028;-73
2024/02/10 04:17:48;;;;;;;1.95;0.82;;;6.80;99.90;;;;;;5053849;28;20495;-73
2024/02/10 04:20:15;;;;;;;1.30;0.68;;;6.60;99.90;;;;;;5052169;28;20025;-73
2024/02/10 04:22:45;;;;;;;0.88;0.70;;;6.60;99.90;;;;;;5052446;28;20107;-73
2024/02/10 04:25:14;;;;;;;0.60;0.60;;;6.60;99.90;;;;;;5052111;28;20017;-73
2024/02/10 04:27:40;;;;;;;5.57;0.55;;;6.60;99.90;;;;;;5052119;28;20017;-73
2024/02/10 04:30:07;;;;;;;0.75;0.60;;;6.50;99.90;;;;;;5051947;28;20036;-73
2024/02/10 04:32:33;;;;;;;0.60;0.60;;;6.40;99.90;;;;;;5052081;28;20490;-74
2024/02/10 04:34:59;;;;;;;3.20;1.15;;;6.30;99.90;;;;;;5053115;28;20036;-73
2024/02/10 04:37:25;;;;;;;1.67;0.85;;;6.20;99.90;;;;;;5052969;28;20463;-73
2024/02/10 04:39:50;;;;;;;1.45;1.30;;;6.10;99.90;;;;;;5052632;28;20112;-73
2024/02/10 04:42:16;;;;;;;0.95;0.88;;;6.00;99.90;;;;;;5051721;28;20028;-73
2024/02/10 04:44:48;;;;;;;2.30;1.15;;;6.00;99.90;;;;;;5053104;28;20036;-73
2024/02/10 04:47:15;;;;;;;1.30;0.80;;;6.00;99.90;;;;;;5053114;28;20066;-73
2024/02/10 04:49:41;;;;;;;3.13;1.08;;;6.00;99.90;;;;;;5054358;28;20045;-74
2024/02/10 04:52:06;;;;;;;0.68;0.65;;;5.90;99.90;;;;;;5056812;28;20090;-73
2024/02/10 04:54:32;;;;;;;0.63;0.50;;;6.00;99.90;;;;;;5052869;28;20028;-73
2024/02/10 04:56:58;;;;;;;0.75;0.60;;;5.90;99.90;;;;;;5052646;28;20025;-74
2024/02/10 04:59:26;;;;;;;1.20;0.80;;;5.90;99.90;;;;;;5052729;28;20064;-74
2024/02/10 05:01:53;;;;;;;0.52;0.50;;;6.00;99.90;;;;;;5052820;28;20376;-73
2024/02/10 05:04:19;;;;;;;0.50;0.50;;;6.00;99.90;;;;;;5052703;28;20021;-73
2024/02/10 05:06:46;;;;;;;1.30;0.90;;;5.90;99.90;;;;;;5052762;28;20036;-73
2024/02/10 05:09:12;;;;;;;1.77;0.70;;;6.00;99.90;;;;;;5051271;28;20039;-74
2024/02/10 05:11:38;;;;;;;1.85;0.60;;;5.90;99.90;;;;;;5051066;28;20111;-73
2024/02/10 05:14:04;;;;;;;0.93;0.93;;;5.80;99.90;;;;;;5051247;28;20499;-74
2024/02/10 05:16:31;;;;;;;2.47;1.75;;;5.70;99.90;;;;;;5051150;28;20495;-73
2024/02/10 05:19:00;;;;;;;4.80;3.08;;;5.60;99.90;;;;;;5051155;28;20025;-73
2024/02/10 05:21:27;;;;;;;3.63;3.00;;;5.50;99.90;;;;;;5052177;28;20113;-73
2024/02/10 05:23:54;;;;;;;4.45;2.63;;;5.50;99.90;;;;;;5050985;28;20025;-73
2024/02/10 05:26:19;;;;;;;2.45;1.20;;;5.40;99.90;;;;;;5052117;28;20410;-73
2024/02/10 05:28:47;;;;;;;3.13;0.77;;;5.40;99.90;;;;;;5052278;28;20058;-73
2024/02/10 05:31:13;;;;;;;2.28;0.82;;;5.30;99.90;;;;;;5052087;28;20402;-73
2024/02/10 05:33:42;;;;;;;2.22;1.88;;;5.20;99.90;;;;;;5050817;28;20024;-73
2024/02/10 05:36:10;;;;;;;1.42;1.33;;;5.10;99.90;;;;;;5050775;28;20440;-73
2024/02/10 05:38:39;;;;;;;3.95;1.80;;;5.00;99.90;;;;;;5050707;28;20029;-73
2024/02/10 05:41:05;;;;;;;2.00;1.63;;;5.00;99.90;;;;;;5051856;28;20025;-73
2024/02/10 05:43:33;;;;;;;6.05;3.83;;;5.00;99.90;;;;;;5050762;28;20033;-73
2024/02/10 05:46:04;;;;;;;4.75;3.83;;;5.00;99.90;;;;;;5051929;28;20422;-73
2024/02/10 05:48:30;;;;;;;5.13;3.80;;;5.00;99.90;;;;;;5052043;28;20606;-73
2024/02/10 05:51:00;;;;;;;4.40;2.00;;;5.00;99.90;;;;;;5050866;28;20096;-73
2024/02/10 05:53:26;;;;;;;0.88;0.88;;;5.00;99.90;;;;;;5050570;28;20029;-74
2024/02/10 05:55:52;;;;;;;2.38;0.70;;;5.00;99.90;;;;;;5056040;28;20025;-74
2024/02/10 05:58:23;;;;;;;0.82;0.60;;;4.90;99.90;;;;;;5052702;28;20025;-73
2024/02/10 06:00:52;;;;;;;2.05;0.68;;;5.30;99.90;;;;;;5051676;28;20021;-74
2024/02/10 06:03:18;;;;;;;1.38;0.50;;;5.10;99.90;;;;;;5054508;28;20025;-74
2024/02/10 06:05:44;;;;;;;2.60;1.80;;;4.90;99.90;;;;;;5055275;28;20029;-74
2024/02/10 06:08:12;;;;;;;1.58;1.05;;;4.80;99.90;;;;;;5051686;28;20431;-74
2024/02/10 06:10:38;;;;;;;0.77;0.77;;;4.70;99.90;;;;;;5051794;28;20024;-74
2024/02/10 06:13:04;;;;;;;2.70;1.60;;;4.60;99.90;;;;;;5051850;28;20029;-74
2024/02/10 06:15:30;;;;;;;1.30;1.20;;;4.60;99.90;;;;;;5053162;28;20044;-73
2024/02/10 06:17:57;;;;;;;1.73;1.20;;;4.60;99.90;;;;;;5051652;28;20044;-72
2024/02/10 06:20:23;;;;;;;3.70;1.00;;;4.60;99.90;;;;;;5051411;28;20025;-73
2024/02/10 06:22:50;;;;;;;1.20;1.10;;;4.60;99.90;;;;;;5051517;28;20092;-73
2024/02/10 06:25:22;;;;;;;1.77;1.02;;;4.50;99.90;;;;;;5050277;28;20021;-73
2024/02/10 06:27:51;;;;;;;1.95;0.93;;;4.50;99.90;;;;;;5051555;28;20057;-73
2024/02/10 06:30:17;;;;;;;4.18;1.02;;;4.40;99.90;;;;;;5050003;28;20049;-73
2024/02/10 06:32:43;;;;;;;0.63;0.52;;;4.40;99.90;;;;;;5050288;28;20052;-73
2024/02/10 06:35:10;;;;;;;0.80;0.52;;;4.30;99.90;;;;;;5051329;28;20032;-73
2024/02/10 06:37:42;;;;;;;2.20;1.08;;;4.30;99.90;;;;;;5051368;28;20491;-73
2024/02/10 06:40:13;;;;;;;6.85;0.85;;;4.40;99.90;;;;;;5050065;28;20025;-73
2024/02/10 06:42:38;;;;;;;1.85;0.77;;;4.40;99.90;;;;;;5051564;28;20024;-73
2024/02/10 06:45:14;;;;;;;1.02;0.85;;;4.40;99.90;;;;;;5051393;28;20020;-73
2024/02/10 06:47:47;;;;;;;0.82;0.50;;;4.40;99.90;;;;;;5051513;28;20566;-73
2024/02/10 06:50:14;;;;;;;6.45;0.90;;;4.40;99.90;;;;;;5051357;28;20504;-73
2024/02/10 06:52:41;;;;;;;2.13;1.30;;;4.40;99.90;;;;;;5049770;28;20028;-73
2024/02/10 06:55:12;;;;;;;1.30;1.20;;;4.40;99.90;;;;;;5049998;28;20049;-73
2024/02/10 06:57:42;;;;;;;4.05;1.85;;;4.50;99.90;;;;;;5051176;28;20040;-73
2024/02/10 07:00:15;;;;;;;2.40;2.00;;;4.50;99.90;;;;;;5051063;28;20056;-73
2024/02/10 07:02:45;;;;;;;1.33;1.20;;;4.60;99.90;;;;;;5053090;28;20028;-73
2024/02/10 07:05:13;;;;;;;2.90;1.30;;;4.80;99.90;;;;;;5053374;28;20025;-73
2024/02/10 07:07:42;;;;;;;4.65;2.25;;;4.80;99.90;;;;;;5054787;28;20025;-73
2024/02/10 07:10:15;;;;;;;2.63;1.90;;;5.00;99.90;;;;;;5054742;28;20508;-73
2024/02/10 07:12:48;;;;;;;5.45;2.28;;;5.10;99.90;;;;;;5054969;28;20446;-73
2024/02/10 07:15:18;;;;;;;3.67;2.45;;;5.30;99.90;;;;;;5055887;28;20028;-75
2024/02/10 07:17:46;;;;;;;9.35;5.53;;;6.20;99.90;;;;;;5059860;28;20027;-75
2024/02/10 07:20:20;;;;;;;6.80;3.85;;;7.30;99.90;;;;;;5053505;28;20024;-73
2024/02/10 07:22:56;;;;;;;4.53;1.75;;;7.40;99.90;;;;;;5054618;28;20021;-73
2024/02/10 07:25:25;;;;;;;4.82;1.83;;;7.20;99.90;;;;;;5054449;28;20083;-73
2024/02/10 07:27:51;;;;;;;5.20;2.17;;;7.00;99.90;;;;;;5054585;28;20025;-73
2024/02/10 07:30:18;;;;;;;3.78;1.70;;;6.90;99.90;;;;;;5054363;28;20108;-73
2024/02/10 07:32:50;;;;;;;2.17;1.67;;;6.80;99.90;;;;;;5054392;28;20051;-73
2024/02/10 07:35:16;;;;;;;2.95;1.48;;;6.80;99.90;;;;;;5054143;28;20104;-73
2024/02/10 07:37:45;;;;;;;3.58;2.50;;;6.80;99.90;;;;;;5053864;28;20433;-73
2024/02/10 07:40:11;;;;;;;3.53;2.50;;;8.10;99.90;;;;;;5053900;28;20021;-74
2024/02/10 07:42:37;;;;;;;5.90;2.25;;;8.30;99.90;;;;;;5053919;28;20028;-74
2024/02/10 07:45:04;;;;;;;3.83;2.80;;;8.60;99.90;;;;;;5053909;28;20100;-73
2024/02/10 07:47:29;;;;;;;5.00;3.30;;;8.30;99.90;;;;;;5053983;28;20033;-74
2024/02/10 07:49:58;;;;;;;4.72;4.18;;;8.10;99.90;;;;;;5052627;28;20036;-73
2024/02/10 07:52:26;;;;;;;4.88;3.65;;;7.90;99.90;;;;;;5053861;28;20427;-74
2024/02/10 07:54:52;;;;;;;13.57;5.38;;;7.80;99.90;;;;;;5054039;28;20467;-74
2024/02/10 07:57:21;;;;;;;6.97;3.78;;;7.70;99.90;;;;;;5057585;28;20403;-75
2024/02/10 07:59:53;;;;;;;6.47;2.58;;;7.70;99.90;;;;;;5061324;28;20025;-74
2024/02/10 08:02:21;;;;;;;11.80;2.30;;;7.70;99.90;;;;;;5058864;28;20024;-74
2024/02/10 08:04:53;;;;;;;4.28;1.52;;;7.70;99.90;;;;;;5054330;28;20017;-73
2024/02/10 08:07:19;;;;;;;4.75;1.65;;;7.70;99.90;;;;;;5053755;28;20083;-74
2024/02/10 08:09:45;;;;;;;4.25;1.42;;;7.80;99.90;;;;;;5052264;28;20061;-74
2024/02/10 08:12:15;;;;;;;3.20;1.65;;;7.90;99.90;;;;;;5052334;28;20407;-74
2024/02/10 08:14:42;;;;;;;3.00;1.85;;;8.10;99.90;;;;;;5053152;28;20493;-74
2024/02/10 08:17:09;;;;;;;2.50;1.48;;;8.20;99.90;;;;;;5053382;28;20399;-73
2024/02/10 08:19:37;;;;;;;2.15;1.70;;;8.40;99.90;;;;;;5053432;28;20104;-73
2024/02/10 08:22:07;;;;;;;2.80;1.95;;;8.50;99.90;;;;;;5053663;28;20021;-74
2024/02/10 08:24:38;;;;;;;4.40;1.77;;;8.60;99.90;;;;;;5053535;28;20024;-73
2024/02/10 08:27:06;;;;;;;2.40;1.58;;;8.70;99.90;;;;;;5053647;28;20135;-74
2024/02/10 08:29:35;;;;;;;3.53;1.85;;;8.90;99.90;;;;;;5056065;28;20036;-74
2024/02/10 08:32:02;;;;;;;7.55;1.95;;;9.10;99.90;;;;;;5055867;28;20040;-73
2024/02/10 08:34:31;;;;;;;2.83;1.85;;;9.30;99.90;;;;;;5053217;28;20037;-73
2024/02/10 08:36:57;;;;;;;3.80;3.10;;;9.40;99.90;;;;;;5053180;28;20025;-74
2024/02/10 08:39:23;;;;;;;12.43;4.38;;;9.60;99.90;;;;;;5053379;28;20437;-73
2024/02/10 08:41:49;;;;;;;2.20;1.88;;;9.80;99.90;;;;;;5051605;28;20031;-73
2024/02/10 08:44:14;;;;;;;4.13;2.45;;;10.00;99.90;;;;;;5051345;28;20074;-72
2024/02/10 08:46:42;;;;;;;2.78;1.50;;;10.10;99.90;;;;;;5052997;28;20502;-72
2024/02/10 08:49:11;;;;;;;3.67;2.15;;;10.30;99.90;;;;;;5053041;28;20021;-73
2024/02/10 08:51:37;;;;;;;9.30;2.42;;;10.50;99.90;;;;;;5052896;28;20454;-73
2024/02/10 08:54:07;;;;;;;2.97;1.70;;;10.70;99.90;;;;;;5052831;28;20063;-74
2024/02/10 08:56:38;;;;;;;8.10;1.85;;;10.90;99.90;;;;;;5052729;28;20395;-73
2024/02/10 08:59:05;;;;;;;3.92;1.60;;;11.20;99.90;;;;;;5052197;28;20025;-73
2024/02/10 09:01:31;;;;;;;3.22;1.23;;;11.50;99.90;;;;;;5051068;28;20021;-74
2024/02/10 09:03:57;;;;;;;5.32;1.30;;;11.70;99.90;;;;;;5051397;28;20044;-72
2024/02/10 09:06:22;;;;;;;4.18;1.23;;;12.10;99.90;;;;;;5051191;28;20104;-72
2024/02/10 09:08:51;;;;;;;3.03;1.55;;;12.30;99.90;;;;;;5052458;28;20100;-72
2024/02/10 09:11:20;;;;;;;2.65;1.13;;;12.50;99.90;;;;;;5052158;28;20040;-73
2024/02/10 09:13:46;;;;;;;4.03;1.30;;;12.70;99.90;;;;;;5052420;28;20047;-74
2024/02/10 09:16:12;;;;;;;5.22;1.55;;;12.90;99.90;;;;;;5052329;28;20398;-73
2024/02/10 09:18:41;;;;;;;2.05;0.90;;;13.00;99.90;;;;;;5051033;28;20025;-74
2024/02/10 09:21:07;;;;;;;2.70;1.30;;;13.20;99.50;;;;;;5050772;28;20024;-73
2024/02/10 09:23:33;;;;;;;5.60;1.50;;;13.40;99.00;;;;;;5051145;28;20025;-73
2024/02/10 09:25:58;;;;;;;5.55;1.20;;;13.60;97.90;;;;;;5052163;28;20029;-73
2024/02/10 09:28:29;;;;;;;1.77;1.20;;;13.80;96.20;;;;;;5052185;28;20100;-74
2024/02/10 09:30:57;;;;;;;4.78;3.15;;;14.10;95.20;;;;;;5052133;28;20382;-73
2024/02/10 09:33:26;;;;;;;5.70;1.50;;;14.20;93.60;;;;;;5052175;28;20029;-74
2024/02/10 09:35:52;;;;;;;4.47;1.20;;;14.40;93.20;;;;;;5067608;22;20034;-73
2024/02/10 09:38:22;;;;;;;4.20;1.17;;;14.60;91.10;;;;;;5032445;28;20449;-75
2024/02/10 09:40:48;;;;;;;4.72;1.38;;;14.80;90.50;;;;;;5030356;28;20021;-75
2024/02/10 09:43:18;;;;;;;4.55;3.25;;;15.00;89.60;;;;;;5032282;28;20028;-74
2024/02/10 09:45:45;;;;;;;3.42;1.00;;;15.00;88.30;;;;;;5032280;28;20056;-73
2024/02/10 09:48:19;;;;;;;5.28;2.50;;;15.10;86.30;;;;;;5032389;28;20029;-75
2024/02/10 09:50:45;;;;;;;6.50;1.38;;;15.10;86.40;;;;;;5032355;28;20030;-74
2024/02/10 09:53:12;;;;;;;5.05;2.92;;;15.20;85.60;;;;;;5031070;28;20025;-75
2024/02/10 09:55:37;;;;;;;9.65;2.47;;;15.20;82.70;;;;;;5030608;28;20029;-75
2024/02/10 09:58:06;;;;;;;6.80;3.17;;;15.20;82.80;;;;;;5030560;28;20028;-75
2024/02/10 10:00:36;;;;;;;3.35;1.42;;;15.30;81.60;;;;;;5031765;28;20541;-73
2024/02/10 10:03:02;;;;;;;8.90;2.67;;;15.40;81.50;;;;;;5032168;28;20056;-74
2024/02/10 10:05:32;;;;;;;5.38;3.10;;;15.50;79.60;;;;;;5031910;28;20056;-74
2024/02/10 10:07:58;;;;;;;13.85;3.42;;;15.50;80.30;;;;;;5032082;28;20044;-75
2024/02/10 10:10:23;;;;;;;9.02;5.55;;;15.50;78.20;;;;;;5031795;28;20420;-75
2024/02/10 10:12:52;;;;;;;5.50;2.50;;;15.70;78.00;;;;;;5032808;28;20030;-74
2024/02/10 10:15:18;;;;;;;7.20;1.92;;;15.80;77.90;;;;;;5032049;28;20103;-73
2024/02/10 10:17:44;;;;;;;8.27;2.58;;;16.00;75.80;;;;;;5032131;28;20504;-73
2024/02/10 10:20:10;;;;;;;9.48;2.63;;;16.10;74.50;;;;;;5030480;28;20608;-72
2024/02/10 10:22:36;;;;;;;6.95;2.10;;;16.10;73.80;;;;;;5031684;28;20506;-72
2024/02/10 10:25:02;;;;;;;5.43;2.63;;;16.30;73.50;;;;;;5031717;28;20075;-73
2024/02/10 10:27:29;;;;;;;4.32;2.60;;;16.30;71.80;;;;;;5030260;28;20025;-73
2024/02/10 10:29:55;;;;;;;7.20;2.15;;;16.40;72.30;;;;;;5031363;28;20036;-72
2024/02/10 10:32:22;;;;;;;3.67;2.00;;;16.50;71.80;;;;;;5031595;28;20390;-71
2024/02/10 10:34:48;;;;;;;6.10;2.15;;;16.60;68.90;;;;;;5031548;28;20496;-70
2024/02/10 10:37:16;;;;;;;10.07;5.03;;;16.70;68.50;;;;;;5032150;28;20471;-71
2024/02/10 10:39:45;;;;;;;7.97;3.65;;;16.80;68.60;;;;;;5034215;28;20116;-71
2024/02/10 10:42:16;;;;;;;7.22;2.53;;;16.80;65.60;;;;;;5035677;28;20014;-71
2024/02/10 10:44:42;;;;;;;6.57;3.50;;;16.80;65.10;;;;;;5035900;28;20017;-72
2024/02/10 10:47:10;;;;;;;24.27;9.15;;;16.70;65.70;;;;;;5035574;28;20023;-73
2024/02/10 10:49:36;;;;;;;20.05;6.63;;;16.60;65.50;;;;;;5034063;28;20029;-70
2024/02/10 10:52:04;;;;;;;25.65;9.63;;;16.60;64.60;;;;;;5035337;28;20553;-72
2024/02/10 10:54:42;;;;;;;22.05;8.63;;;16.70;66.20;;;;;;5035223;28;20029;-72
2024/02/10 10:57:20;;;;;;;9.63;2.15;;;16.70;63.20;;;;;;5035212;28;20033;-71
2024/02/10 10:59:54;;;;;;;10.93;2.80;;;16.70;62.90;;;;;;5034800;28;20029;-71
2024/02/10 11:02:20;;;;;;;14.43;6.30;;;16.80;63.10;;;;;;5034500;28;20030;-71
2024/02/10 11:04:46;;;;;;;5.68;1.95;;;16.80;63.50;;;;;;5034839;28;20137;-72
2024/02/10 11:07:12;;;;;;;5.80;2.97;;;16.90;61.60;;;;;;5034878;28;20104;-72
2024/02/10 11:09:48;;;;;;;43.10;16.70;;;16.80;61.80;;;;;;5034580;28;20104;-72
2024/02/10 11:12:17;;;;;;;10.23;3.90;;;16.70;62.40;;;;;;5035482;28;20025;-72
2024/02/10 11:14:56;;;;;;;11.25;5.43;;;16.80;62.00;;;;;;5034865;28;20033;-73
2024/02/10 11:17:22;;;;;;;28.48;10.68;;;16.80;61.00;;;;;;5034658;28;20111;-73
2024/02/10 11:20:03;;;;;;;14.75;7.63;;;16.70;60.10;;;;;;5034478;28;20069;-74
2024/02/10 11:22:35;;;;;;;7.97;2.75;;;16.70;61.90;;;;;;5034229;28;20021;-73
2024/02/10 11:25:02;;;;;;;9.50;3.45;;;16.70;62.10;;;;;;5033609;28;20511;-74
2024/02/10 11:27:30;;;;;;;5.75;1.90;;;16.70;59.90;;;;;;5032460;28;20420;-73
2024/02/10 11:29:58;;;;;;;9.30;5.47;;;16.70;59.90;;;;;;5033950;28;20496;-74
2024/02/10 11:32:33;;;;;;;5.65;2.55;;;16.80;60.50;;;;;;5034355;28;20109;-74
2024/02/10 11:34:59;;;;;;;5.00;1.93;;;16.90;60.30;;;;;;5033215;28;20026;-73
2024/02/10 11:37:26;;;;;;;7.93;2.30;;;16.90;60.60;;;;;;5034120;28;20065;-75
2024/02/10 11:39:58;;;;;;;18.17;8.90;;;16.80;60.60;;;;;;5032991;28;20026;-74
2024/02/10 11:42:23;;;;;;;12.90;4.85;;;16.80;60.60;;;;;;5033522;28;20033;-73
2024/02/10 11:44:50;;;;;;;6.40;2.60;;;16.60;59.70;;;;;;5034991;28;20399;-72
2024/02/10 11:47:16;;;;;;;7.88;3.22;;;16.80;60.40;;;;;;5033743;28;20049;-74
2024/02/10 11:49:43;;;;;;;8.48;2.25;;;16.70;60.10;;;;;;5033444;28;20450;-74
2024/02/10 11:52:09;;;;;;;6.80;1.95;;;16.70;60.20;;;;;;5034121;28;20049;-73
2024/02/10 11:54:38;;;;;;;12.98;3.60;;;16.70;60.30;;;;;;5033683;28;20053;-73
2024/02/10 11:57:12;;;;;;;13.07;4.50;;;16.70;60.50;;;;;;5033789;28;20113;-74
2024/02/10 11:59:38;;;;;;;10.05;4.32;;;16.70;61.50;;;;;;5033987;28;20396;-74
2024/02/10 12:02:14;;;;;;;14.75;5.63;;;16.60;61.20;;;;;;5033840;28;20032;-73
2024/02/10 12:04:41;;;;;;;19.13;7.32;;;16.50;62.30;;;;;;5014247;28;20106;-75
2024/02/10 12:07:08;;;;;;;6.50;4.28;;;16.60;62.70;;;;;;5014008;28;20506;-74
2024/02/10 12:09:33;;;;;;;7.70;2.90;;;16.70;63.00;;;;;;5012302;28;20044;-73
2024/02/10 12:12:00;;;;;;;7.35;2.47;;;16.70;62.40;;;;;;5014479;28;20105;-73
2024/02/10 12:14:28;;;;;;;12.38;4.15;;;16.70;63.30;;;;;;5014104;28;20072;-74
2024/02/10 12:17:06;;;;;;;10.52;4.03;;;16.70;63.30;;;;;;5013197;28;20022;-73
2024/02/10 12:19:36;;;;;;;13.48;3.90;;;16.70;63.60;;;;;;5031802;28;20021;-74
2024/02/10 12:22:02;;;;;;;11.27;3.03;;;16.60;63.20;;;;;;5031448;28;20464;-74
2024/02/10 12:24:28;;;;;;;11.15;4.00;;;16.70;63.40;;;;;;5033328;28;20021;-77
2024/02/10 12:26:54;;;;;;;12.35;2.97;;;16.70;63.60;;;;;;5032545;28;20100;-74
2024/02/10 12:29:20;;;;;;;9.13;1.98;;;16.70;63.50;;;;;;5033225;28;20044;-74
2024/02/10 12:31:46;;;;;;;10.57;2.88;;;16.70;63.70;;;;;;5031677;28;20112;-73
2024/02/10 12:34:14;;;;;;;9.93;3.40;;;16.70;63.30;;;;;;5031700;28;20131;-73
2024/02/10 12:36:40;;;;;;;11.68;2.17;;;16.60;64.20;;;;;;5032566;28;20061;-73
2024/02/10 12:39:06;;;;;;;6.53;2.78;;;16.60;64.30;;;;;;5031505;28;20646;-73
2024/02/10 12:41:32;;;;;;;10.75;3.63;;;16.50;64.70;;;;;;5032771;28;20479;-74
2024/02/10 12:43:58;;;;;;;11.32;2.63;;;16.40;64.60;;;;;;5032354;28;20021;-74
2024/02/10 12:46:25;;;;;;;9.20;2.58;;;16.40;65.00;;;;;;5032548;28;20021;-73
2024/02/10 12:48:51;;;;;;;11.02;3.97;;;16.30;64.60;;;;;;5031862;28;20029;-75
2024/02/10 12:51:17;;;;;;;16.50;2.30;;;16.30;65.10;;;;;;5031638;28;20036;-74
2024/02/10 12:53:43;;;;;;;20.13;3.65;;;16.20;65.90;;;;;;5051545;28;20033;-73